sensor_id;sensor_type;location;lat;lon;timestamp;P1;durP1;ratioP1;P2;durP2;ratioP2
7607;SDS011;3845;48.120;11.534;2022-12-29T00:01:23;1.93;;;1.60;;
7607;SDS011;3845;48.120;11.534;2022-12-29T00:03:48;1.90;;;1.63;;
7607;SDS011;3845;48.120;11.534;2022-12-29T00:06:14;1.83;;;1.63;;
7607;SDS011;3845;48.120;11.534;2022-12-29T00:08:39;1.77;;;1.40;;
7607;SDS011;3845;48.120;11.534;2022-12-29T00:11:15;2.10;;;1.73;;
7607;SDS011;3845;48.120;11.534;2022-12-29T00:13:42;1.57;;;1.23;;
7607;SDS011;3845;48.120;11.534;2022-12-29T00:16:26;2.37;;;1.60;;
7607;SDS011;3845;48.120;11.534;2022-12-29T00:18:52;1.77;;;1.47;;
7607;SDS011;3845;48.120;11.534;2022-12-29T00:21:18;3.20;;;1.53;;
7607;SDS011;3845;48.120;11.534;2022-12-29T00:24:03;1.70;;;1.40;;
7607;SDS011;3845;48.120;11.534;2022-12-29T00:26:49;1.70;;;1.50;;
7607;SDS011;3845;48.120;11.534;2022-12-29T00:29:34;2.10;;;1.60;;
7607;SDS011;3845;48.120;11.534;2022-12-29T00:32:17;1.70;;;1.57;;
7607;SDS011;3845;48.120;11.534;2022-12-29T00:35:01;1.80;;;1.50;;
7607;SDS011;3845;48.120;11.534;2022-12-29T00:37:33;1.50;;;1.30;;
7607;SDS011;3845;48.120;11.534;2022-12-29T00:40:17;1.73;;;1.50;;
7607;SDS011;3845;48.120;11.534;2022-12-29T00:43:01;1.50;;;1.20;;
7607;SDS011;3845;48.120;11.534;2022-12-29T00:45:45;1.60;;;1.37;;
7607;SDS011;3845;48.120;11.534;2022-12-29T00:48:10;1.37;;;1.20;;
7607;SDS011;3845;48.120;11.534;2022-12-29T00:50:36;1.63;;;1.40;;
7607;SDS011;3845;48.120;11.534;2022-12-29T00:53:01;1.70;;;1.40;;
7607;SDS011;3845;48.120;11.534;2022-12-29T00:55:26;1.70;;;1.40;;
7607;SDS011;3845;48.120;11.534;2022-12-29T00:57:51;2.80;;;1.23;;
7607;SDS011;3845;48.120;11.534;2022-12-29T01:00:17;1.53;;;1.30;;
7607;SDS011;3845;48.120;11.534;2022-12-29T01:02:42;1.80;;;1.33;;
7607;SDS011;3845;48.120;11.534;2022-12-29T01:05:07;2.23;;;1.37;;
7607;SDS011;3845;48.120;11.534;2022-12-29T01:07:33;1.70;;;1.33;;
7607;SDS011;3845;48.120;11.534;2022-12-29T01:09:58;1.30;;;1.20;;
7607;SDS011;3845;48.120;11.534;2022-12-29T01:12:36;1.57;;;1.30;;
7607;SDS011;3845;48.120;11.534;2022-12-29T01:15:09;1.47;;;1.30;;
7607;SDS011;3845;48.120;11.534;2022-12-29T01:17:35;1.67;;;1.30;;
7607;SDS011;3845;48.120;11.534;2022-12-29T01:20:01;1.50;;;1.20;;
7607;SDS011;3845;48.120;11.534;2022-12-29T01:22:28;1.40;;;1.20;;
7607;SDS011;3845;48.120;11.534;2022-12-29T01:24:53;1.40;;;1.20;;
7607;SDS011;3845;48.120;11.534;2022-12-29T01:27:19;1.70;;;1.37;;
7607;SDS011;3845;48.120;11.534;2022-12-29T01:29:44;1.50;;;1.30;;
7607;SDS011;3845;48.120;11.534;2022-12-29T01:32:09;1.70;;;1.40;;
7607;SDS011;3845;48.120;11.534;2022-12-29T01:34:34;1.50;;;1.40;;
7607;SDS011;3845;48.120;11.534;2022-12-29T01:36:59;1.43;;;1.20;;
7607;SDS011;3845;48.120;11.534;2022-12-29T01:39:25;1.37;;;1.10;;
7607;SDS011;3845;48.120;11.534;2022-12-29T01:41:50;1.53;;;1.20;;
7607;SDS011;3845;48.120;11.534;2022-12-29T01:47:18;1.30;;;1.13;;
7607;SDS011;3845;48.120;11.534;2022-12-29T01:49:48;1.30;;;1.20;;
7607;SDS011;3845;48.120;11.534;2022-12-29T01:52:14;1.30;;;1.13;;
7607;SDS011;3845;48.120;11.534;2022-12-29T01:54:43;1.20;;;1.10;;
7607;SDS011;3845;48.120;11.534;2022-12-29T01:57:14;1.87;;;1.10;;
7607;SDS011;3845;48.120;11.534;2022-12-29T01:59:50;1.50;;;1.30;;
7607;SDS011;3845;48.120;11.534;2022-12-29T02:02:21;1.93;;;1.33;;
7607;SDS011;3845;48.120;11.534;2022-12-29T02:04:46;1.60;;;1.17;;
7607;SDS011;3845;48.120;11.534;2022-12-29T02:07:19;1.80;;;1.40;;
7607;SDS011;3845;48.120;11.534;2022-12-29T02:09:47;1.93;;;1.53;;
7607;SDS011;3845;48.120;11.534;2022-12-29T02:12:13;1.93;;;1.60;;
7607;SDS011;3845;48.120;11.534;2022-12-29T02:14:39;2.50;;;1.80;;
7607;SDS011;3845;48.120;11.534;2022-12-29T02:39:27;1.80;;;1.47;;
7607;SDS011;3845;48.120;11.534;2022-12-29T02:42:16;1.53;;;1.20;;
7607;SDS011;3845;48.120;11.534;2022-12-29T02:48:37;1.67;;;1.20;;
7607;SDS011;3845;48.120;11.534;2022-12-29T02:51:07;1.40;;;1.20;;
7607;SDS011;3845;48.120;11.534;2022-12-29T02:53:36;1.33;;;1.13;;
7607;SDS011;3845;48.120;11.534;2022-12-29T02:56:20;1.87;;;1.20;;
7607;SDS011;3845;48.120;11.534;2022-12-29T02:58:46;1.40;;;1.10;;
7607;SDS011;3845;48.120;11.534;2022-12-29T03:01:28;1.23;;;1.10;;
7607;SDS011;3845;48.120;11.534;2022-12-29T03:04:37;1.23;;;1.13;;
7607;SDS011;3845;48.120;11.534;2022-12-29T03:06:59;2.60;;;2.00;;
7607;SDS011;3845;48.120;11.534;2022-12-29T03:09:40;3.77;;;2.40;;
7607;SDS011;3845;48.120;11.534;2022-12-29T03:15:17;2.50;;;1.70;;
7607;SDS011;3845;48.120;11.534;2022-12-29T03:18:26;2.93;;;2.10;;
7607;SDS011;3845;48.120;11.534;2022-12-29T03:21:02;2.93;;;1.93;;
7607;SDS011;3845;48.120;11.534;2022-12-29T03:24:12;1.93;;;1.60;;
7607;SDS011;3845;48.120;11.534;2022-12-29T03:26:38;1.50;;;1.40;;
7607;SDS011;3845;48.120;11.534;2022-12-29T03:29:04;1.30;;;1.20;;
7607;SDS011;3845;48.120;11.534;2022-12-29T03:31:30;1.57;;;1.27;;
7607;SDS011;3845;48.120;11.534;2022-12-29T03:33:56;1.77;;;1.40;;
7607;SDS011;3845;48.120;11.534;2022-12-29T03:36:30;3.20;;;1.37;;
7607;SDS011;3845;48.120;11.534;2022-12-29T03:38:59;1.27;;;1.17;;
7607;SDS011;3845;48.120;11.534;2022-12-29T03:41:28;1.90;;;1.10;;
7607;SDS011;3845;48.120;11.534;2022-12-29T03:43:55;1.60;;;1.30;;
7607;SDS011;3845;48.120;11.534;2022-12-29T03:46:21;1.10;;;1.00;;
7607;SDS011;3845;48.120;11.534;2022-12-29T03:48:46;1.67;;;1.17;;
7607;SDS011;3845;48.120;11.534;2022-12-29T03:51:11;1.50;;;1.40;;
7607;SDS011;3845;48.120;11.534;2022-12-29T03:53:37;1.50;;;1.20;;
7607;SDS011;3845;48.120;11.534;2022-12-29T03:56:02;1.83;;;0.93;;
7607;SDS011;3845;48.120;11.534;2022-12-29T03:58:27;1.67;;;1.20;;
7607;SDS011;3845;48.120;11.534;2022-12-29T04:00:53;1.10;;;1.00;;
7607;SDS011;3845;48.120;11.534;2022-12-29T04:03:18;2.90;;;2.10;;
7607;SDS011;3845;48.120;11.534;2022-12-29T04:05:43;3.93;;;2.90;;
7607;SDS011;3845;48.120;11.534;2022-12-29T04:08:08;3.10;;;2.30;;
7607;SDS011;3845;48.120;11.534;2022-12-29T04:10:34;2.50;;;1.93;;
7607;SDS011;3845;48.120;11.534;2022-12-29T04:12:59;3.07;;;1.77;;
7607;SDS011;3845;48.120;11.534;2022-12-29T04:15:24;2.00;;;1.43;;
7607;SDS011;3845;48.120;11.534;2022-12-29T04:17:51;3.00;;;1.50;;
7607;SDS011;3845;48.120;11.534;2022-12-29T04:20:16;1.87;;;1.33;;
7607;SDS011;3845;48.120;11.534;2022-12-29T04:23:01;1.50;;;1.20;;
7607;SDS011;3845;48.120;11.534;2022-12-29T04:25:27;1.37;;;1.07;;
7607;SDS011;3845;48.120;11.534;2022-12-29T04:27:52;1.40;;;1.20;;
7607;SDS011;3845;48.120;11.534;2022-12-29T04:30:18;1.30;;;1.20;;
7607;SDS011;3845;48.120;11.534;2022-12-29T04:32:43;1.43;;;1.20;;
7607;SDS011;3845;48.120;11.534;2022-12-29T04:35:08;2.40;;;2.00;;
7607;SDS011;3845;48.120;11.534;2022-12-29T04:37:34;3.90;;;2.90;;
7607;SDS011;3845;48.120;11.534;2022-12-29T04:39:59;5.17;;;3.73;;
7607;SDS011;3845;48.120;11.534;2022-12-29T04:42:24;3.70;;;2.50;;
7607;SDS011;3845;48.120;11.534;2022-12-29T04:44:49;4.27;;;2.30;;
7607;SDS011;3845;48.120;11.534;2022-12-29T04:47:15;2.10;;;1.70;;
7607;SDS011;3845;48.120;11.534;2022-12-29T04:49:40;2.00;;;1.30;;
7607;SDS011;3845;48.120;11.534;2022-12-29T04:52:05;1.50;;;1.30;;
7607;SDS011;3845;48.120;11.534;2022-12-29T04:54:33;1.70;;;1.40;;
7607;SDS011;3845;48.120;11.534;2022-12-29T04:56:58;1.97;;;1.47;;
7607;SDS011;3845;48.120;11.534;2022-12-29T04:59:24;1.47;;;1.27;;
7607;SDS011;3845;48.120;11.534;2022-12-29T05:01:49;2.53;;;1.30;;
7607;SDS011;3845;48.120;11.534;2022-12-29T05:04:14;1.90;;;1.30;;
7607;SDS011;3845;48.120;11.534;2022-12-29T05:06:39;2.57;;;1.40;;
7607;SDS011;3845;48.120;11.534;2022-12-29T05:09:05;3.37;;;2.40;;
7607;SDS011;3845;48.120;11.534;2022-12-29T05:11:30;3.33;;;2.37;;
7607;SDS011;3845;48.120;11.534;2022-12-29T05:13:56;2.40;;;1.80;;
7607;SDS011;3845;48.120;11.534;2022-12-29T05:16:21;2.00;;;1.70;;
7607;SDS011;3845;48.120;11.534;2022-12-29T05:18:46;3.07;;;1.50;;
7607;SDS011;3845;48.120;11.534;2022-12-29T05:21:11;1.60;;;1.23;;
7607;SDS011;3845;48.120;11.534;2022-12-29T05:23:37;1.70;;;1.30;;
7607;SDS011;3845;48.120;11.534;2022-12-29T05:26:02;1.70;;;1.20;;
7607;SDS011;3845;48.120;11.534;2022-12-29T05:28:27;1.43;;;1.17;;
7607;SDS011;3845;48.120;11.534;2022-12-29T05:30:53;1.27;;;1.13;;
7607;SDS011;3845;48.120;11.534;2022-12-29T05:33:18;1.43;;;1.17;;
7607;SDS011;3845;48.120;11.534;2022-12-29T05:35:44;1.37;;;1.10;;
7607;SDS011;3845;48.120;11.534;2022-12-29T05:38:09;1.70;;;1.30;;
7607;SDS011;3845;48.120;11.534;2022-12-29T05:40:35;1.30;;;1.10;;
7607;SDS011;3845;48.120;11.534;2022-12-29T05:43:00;1.20;;;1.10;;
7607;SDS011;3845;48.120;11.534;2022-12-29T05:45:26;1.30;;;1.10;;
7607;SDS011;3845;48.120;11.534;2022-12-29T05:47:51;1.10;;;1.00;;
7607;SDS011;3845;48.120;11.534;2022-12-29T05:50:16;1.57;;;1.20;;
7607;SDS011;3845;48.120;11.534;2022-12-29T05:52:42;1.27;;;1.17;;
7607;SDS011;3845;48.120;11.534;2022-12-29T05:55:07;1.07;;;0.97;;
7607;SDS011;3845;48.120;11.534;2022-12-29T05:57:32;2.57;;;1.20;;
7607;SDS011;3845;48.120;11.534;2022-12-29T05:59:58;1.37;;;1.20;;
7607;SDS011;3845;48.120;11.534;2022-12-29T06:02:23;1.60;;;1.20;;
7607;SDS011;3845;48.120;11.534;2022-12-29T06:04:48;1.30;;;1.20;;
7607;SDS011;3845;48.120;11.534;2022-12-29T06:07:13;1.33;;;1.20;;
7607;SDS011;3845;48.120;11.534;2022-12-29T06:09:39;2.10;;;1.70;;
7607;SDS011;3845;48.120;11.534;2022-12-29T06:12:04;2.33;;;1.50;;
7607;SDS011;3845;48.120;11.534;2022-12-29T06:14:30;1.83;;;1.50;;
7607;SDS011;3845;48.120;11.534;2022-12-29T06:16:55;1.80;;;1.50;;
7607;SDS011;3845;48.120;11.534;2022-12-29T06:19:20;6.83;;;4.23;;
7607;SDS011;3845;48.120;11.534;2022-12-29T06:21:45;3.40;;;2.40;;
7607;SDS011;3845;48.120;11.534;2022-12-29T06:24:11;3.03;;;2.33;;
7607;SDS011;3845;48.120;11.534;2022-12-29T06:26:36;3.87;;;1.90;;
7607;SDS011;3845;48.120;11.534;2022-12-29T06:29:02;2.60;;;1.90;;
7607;SDS011;3845;48.120;11.534;2022-12-29T06:31:27;3.43;;;1.70;;
7607;SDS011;3845;48.120;11.534;2022-12-29T06:33:53;1.97;;;1.50;;
7607;SDS011;3845;48.120;11.534;2022-12-29T06:36:18;1.70;;;1.50;;
7607;SDS011;3845;48.120;11.534;2022-12-29T06:38:43;2.07;;;1.33;;
7607;SDS011;3845;48.120;11.534;2022-12-29T06:41:09;1.80;;;1.50;;
7607;SDS011;3845;48.120;11.534;2022-12-29T06:43:34;1.73;;;1.40;;
7607;SDS011;3845;48.120;11.534;2022-12-29T06:46:03;2.63;;;2.10;;
7607;SDS011;3845;48.120;11.534;2022-12-29T06:48:29;7.70;;;5.27;;
7607;SDS011;3845;48.120;11.534;2022-12-29T06:50:54;8.37;;;6.03;;
7607;SDS011;3845;48.120;11.534;2022-12-29T06:53:19;6.83;;;5.23;;
7607;SDS011;3845;48.120;11.534;2022-12-29T06:55:44;4.07;;;3.27;;
7607;SDS011;3845;48.120;11.534;2022-12-29T06:58:10;7.67;;;4.60;;
7607;SDS011;3845;48.120;11.534;2022-12-29T07:00:35;4.70;;;3.60;;
7607;SDS011;3845;48.120;11.534;2022-12-29T07:03:00;4.70;;;3.00;;
7607;SDS011;3845;48.120;11.534;2022-12-29T07:05:25;3.70;;;2.33;;
7607;SDS011;3845;48.120;11.534;2022-12-29T07:07:52;2.70;;;2.00;;
7607;SDS011;3845;48.120;11.534;2022-12-29T07:10:18;2.87;;;1.93;;
7607;SDS011;3845;48.120;11.534;2022-12-29T07:12:43;2.00;;;1.70;;
7607;SDS011;3845;48.120;11.534;2022-12-29T07:15:09;2.80;;;1.60;;
7607;SDS011;3845;48.120;11.534;2022-12-29T07:17:34;2.87;;;1.83;;
7607;SDS011;3845;48.120;11.534;2022-12-29T07:19:59;2.00;;;1.53;;
7607;SDS011;3845;48.120;11.534;2022-12-29T07:22:25;1.53;;;1.40;;
7607;SDS011;3845;48.120;11.534;2022-12-29T07:24:50;2.47;;;1.60;;
7607;SDS011;3845;48.120;11.534;2022-12-29T07:27:15;2.07;;;1.53;;
7607;SDS011;3845;48.120;11.534;2022-12-29T07:29:40;2.07;;;1.60;;
7607;SDS011;3845;48.120;11.534;2022-12-29T07:32:06;1.57;;;1.40;;
7607;SDS011;3845;48.120;11.534;2022-12-29T07:34:31;1.53;;;1.33;;
7607;SDS011;3845;48.120;11.534;2022-12-29T07:36:56;1.40;;;1.20;;
7607;SDS011;3845;48.120;11.534;2022-12-29T07:39:22;2.00;;;1.60;;
7607;SDS011;3845;48.120;11.534;2022-12-29T07:41:47;1.83;;;1.50;;
7607;SDS011;3845;48.120;11.534;2022-12-29T07:44:12;1.90;;;1.60;;
7607;SDS011;3845;48.120;11.534;2022-12-29T07:46:37;2.03;;;1.40;;
7607;SDS011;3845;48.120;11.534;2022-12-29T07:49:03;1.80;;;1.37;;
7607;SDS011;3845;48.120;11.534;2022-12-29T07:51:28;1.83;;;1.60;;
7607;SDS011;3845;48.120;11.534;2022-12-29T07:53:53;2.60;;;1.70;;
7607;SDS011;3845;48.120;11.534;2022-12-29T07:56:18;1.93;;;1.30;;
7607;SDS011;3845;48.120;11.534;2022-12-29T07:58:44;2.13;;;1.50;;
7607;SDS011;3845;48.120;11.534;2022-12-29T08:01:09;2.23;;;1.50;;
7607;SDS011;3845;48.120;11.534;2022-12-29T08:03:34;2.00;;;1.60;;
7607;SDS011;3845;48.120;11.534;2022-12-29T08:06:01;2.80;;;1.70;;
7607;SDS011;3845;48.120;11.534;2022-12-29T08:08:26;2.00;;;1.50;;
7607;SDS011;3845;48.120;11.534;2022-12-29T08:10:51;1.53;;;1.30;;
7607;SDS011;3845;48.120;11.534;2022-12-29T08:13:17;1.73;;;1.40;;
7607;SDS011;3845;48.120;11.534;2022-12-29T08:15:42;1.40;;;1.20;;
7607;SDS011;3845;48.120;11.534;2022-12-29T08:18:07;2.37;;;1.30;;
7607;SDS011;3845;48.120;11.534;2022-12-29T08:20:33;1.90;;;1.40;;
7607;SDS011;3845;48.120;11.534;2022-12-29T08:22:58;1.50;;;1.30;;
7607;SDS011;3845;48.120;11.534;2022-12-29T08:25:23;6.97;;;3.53;;
7607;SDS011;3845;48.120;11.534;2022-12-29T08:27:48;3.73;;;2.80;;
7607;SDS011;3845;48.120;11.534;2022-12-29T08:30:14;3.40;;;2.77;;
7607;SDS011;3845;48.120;11.534;2022-12-29T08:32:40;3.57;;;2.40;;
7607;SDS011;3845;48.120;11.534;2022-12-29T08:35:05;4.07;;;2.70;;
7607;SDS011;3845;48.120;11.534;2022-12-29T08:37:32;2.90;;;2.30;;
7607;SDS011;3845;48.120;11.534;2022-12-29T08:39:57;4.10;;;2.30;;
7607;SDS011;3845;48.120;11.534;2022-12-29T08:42:24;2.77;;;2.33;;
7607;SDS011;3845;48.120;11.534;2022-12-29T08:44:55;2.30;;;1.80;;
7607;SDS011;3845;48.120;11.534;2022-12-29T08:47:21;2.30;;;1.90;;
7607;SDS011;3845;48.120;11.534;2022-12-29T08:49:46;2.07;;;1.80;;
7607;SDS011;3845;48.120;11.534;2022-12-29T08:52:11;2.03;;;1.70;;
7607;SDS011;3845;48.120;11.534;2022-12-29T08:54:36;3.20;;;1.80;;
7607;SDS011;3845;48.120;11.534;2022-12-29T08:57:02;2.13;;;1.90;;
7607;SDS011;3845;48.120;11.534;2022-12-29T08:59:27;3.00;;;1.70;;
7607;SDS011;3845;48.120;11.534;2022-12-29T09:01:52;2.10;;;1.73;;
7607;SDS011;3845;48.120;11.534;2022-12-29T09:04:18;1.67;;;1.50;;
7607;SDS011;3845;48.120;11.534;2022-12-29T09:06:44;2.00;;;1.60;;
7607;SDS011;3845;48.120;11.534;2022-12-29T09:09:09;1.83;;;1.43;;
7607;SDS011;3845;48.120;11.534;2022-12-29T09:11:36;3.50;;;2.47;;
7607;SDS011;3845;48.120;11.534;2022-12-29T09:14:01;4.20;;;1.80;;
7607;SDS011;3845;48.120;11.534;2022-12-29T09:16:26;2.90;;;1.73;;
7607;SDS011;3845;48.120;11.534;2022-12-29T09:18:52;2.40;;;1.70;;
7607;SDS011;3845;48.120;11.534;2022-12-29T09:21:17;2.13;;;1.73;;
7607;SDS011;3845;48.120;11.534;2022-12-29T09:23:43;1.90;;;1.50;;
7607;SDS011;3845;48.120;11.534;2022-12-29T09:26:08;1.90;;;1.57;;
7607;SDS011;3845;48.120;11.534;2022-12-29T09:28:34;2.27;;;1.90;;
7607;SDS011;3845;48.120;11.534;2022-12-29T09:30:59;3.37;;;2.60;;
7607;SDS011;3845;48.120;11.534;2022-12-29T09:33:25;3.27;;;2.57;;
7607;SDS011;3845;48.120;11.534;2022-12-29T09:35:51;3.90;;;2.80;;
7607;SDS011;3845;48.120;11.534;2022-12-29T09:38:18;3.77;;;3.00;;
7607;SDS011;3845;48.120;11.534;2022-12-29T09:40:50;2.40;;;2.20;;
7607;SDS011;3845;48.120;11.534;2022-12-29T09:45:54;3.83;;;2.80;;
7607;SDS011;3845;48.120;11.534;2022-12-29T09:48:31;2.93;;;2.50;;
7607;SDS011;3845;48.120;11.534;2022-12-29T09:50:59;2.90;;;2.30;;
7607;SDS011;3845;48.120;11.534;2022-12-29T09:56:03;2.30;;;1.90;;
7607;SDS011;3845;48.120;11.534;2022-12-29T09:58:34;1.83;;;1.53;;
7607;SDS011;3845;48.120;11.534;2022-12-29T10:01:02;1.60;;;1.40;;
7607;SDS011;3845;48.120;11.534;2022-12-29T10:03:36;1.67;;;1.50;;
7607;SDS011;3845;48.120;11.534;2022-12-29T10:09:24;1.93;;;1.40;;
7607;SDS011;3845;48.120;11.534;2022-12-29T10:11:58;2.57;;;1.80;;
7607;SDS011;3845;48.120;11.534;2022-12-29T10:17:39;2.17;;;1.70;;
7607;SDS011;3845;48.120;11.534;2022-12-29T10:20:31;1.93;;;1.50;;
7607;SDS011;3845;48.120;11.534;2022-12-29T10:23:10;2.13;;;1.63;;
7607;SDS011;3845;48.120;11.534;2022-12-29T10:25:42;1.73;;;1.50;;
7607;SDS011;3845;48.120;11.534;2022-12-29T10:28:17;3.20;;;1.50;;
7607;SDS011;3845;48.120;11.534;2022-12-29T10:30:47;3.43;;;1.70;;
7607;SDS011;3845;48.120;11.534;2022-12-29T10:33:21;2.63;;;1.93;;
7607;SDS011;3845;48.120;11.534;2022-12-29T10:35:49;3.10;;;2.47;;
7607;SDS011;3845;48.120;11.534;2022-12-29T10:38:28;5.83;;;4.63;;
7607;SDS011;3845;48.120;11.534;2022-12-29T10:41:03;5.63;;;2.43;;
7607;SDS011;3845;48.120;11.534;2022-12-29T10:43:34;7.73;;;4.90;;
7607;SDS011;3845;48.120;11.534;2022-12-29T10:46:07;14.53;;;6.50;;
7607;SDS011;3845;48.120;11.534;2022-12-29T10:48:35;5.67;;;4.20;;
7607;SDS011;3845;48.120;11.534;2022-12-29T10:51:02;5.83;;;3.70;;
7607;SDS011;3845;48.120;11.534;2022-12-29T10:53:39;3.60;;;2.90;;
7607;SDS011;3845;48.120;11.534;2022-12-29T10:56:15;5.17;;;2.90;;
7607;SDS011;3845;48.120;11.534;2022-12-29T10:58:47;2.90;;;2.50;;
7607;SDS011;3845;48.120;11.534;2022-12-29T11:01:14;3.93;;;2.57;;
7607;SDS011;3845;48.120;11.534;2022-12-29T11:03:50;3.53;;;2.47;;
7607;SDS011;3845;48.120;11.534;2022-12-29T11:06:25;3.20;;;2.30;;
7607;SDS011;3845;48.120;11.534;2022-12-29T11:08:53;2.63;;;2.10;;
7607;SDS011;3845;48.120;11.534;2022-12-29T11:11:27;3.03;;;2.33;;
7607;SDS011;3845;48.120;11.534;2022-12-29T11:16:38;3.23;;;1.97;;
7607;SDS011;3845;48.120;11.534;2022-12-29T11:19:03;2.37;;;1.97;;
7607;SDS011;3845;48.120;11.534;2022-12-29T11:21:36;3.70;;;2.60;;
7607;SDS011;3845;48.120;11.534;2022-12-29T11:24:14;4.77;;;3.70;;
7607;SDS011;3845;48.120;11.534;2022-12-29T11:26:44;4.60;;;3.10;;
7607;SDS011;3845;48.120;11.534;2022-12-29T11:31:44;3.97;;;2.60;;
7607;SDS011;3845;48.120;11.534;2022-12-29T11:34:17;4.00;;;2.67;;
7607;SDS011;3845;48.120;11.534;2022-12-29T11:36:51;3.83;;;2.40;;
7607;SDS011;3845;48.120;11.534;2022-12-29T11:39:40;2.77;;;2.10;;
7607;SDS011;3845;48.120;11.534;2022-12-29T11:42:11;2.10;;;1.70;;
7607;SDS011;3845;48.120;11.534;2022-12-29T11:44:41;2.50;;;1.83;;
7607;SDS011;3845;48.120;11.534;2022-12-29T11:47:08;2.97;;;1.53;;
7607;SDS011;3845;48.120;11.534;2022-12-29T11:49:38;4.27;;;2.00;;
7607;SDS011;3845;48.120;11.534;2022-12-29T11:52:03;4.30;;;1.90;;
7607;SDS011;3845;48.120;11.534;2022-12-29T11:54:34;3.07;;;2.13;;
7607;SDS011;3845;48.120;11.534;2022-12-29T11:57:09;2.80;;;2.30;;
7607;SDS011;3845;48.120;11.534;2022-12-29T11:59:38;2.33;;;1.90;;
7607;SDS011;3845;48.120;11.534;2022-12-29T12:02:48;2.27;;;1.80;;
7607;SDS011;3845;48.120;11.534;2022-12-29T12:05:09;3.03;;;2.00;;
7607;SDS011;3845;48.120;11.534;2022-12-29T12:07:42;3.37;;;2.10;;
7607;SDS011;3845;48.120;11.534;2022-12-29T12:10:17;1.83;;;1.50;;
7607;SDS011;3845;48.120;11.534;2022-12-29T12:12:49;2.27;;;1.73;;
7607;SDS011;3845;48.120;11.534;2022-12-29T12:15:27;3.17;;;2.40;;
7607;SDS011;3845;48.120;11.534;2022-12-29T12:20:50;2.07;;;1.60;;
7607;SDS011;3845;48.120;11.534;2022-12-29T12:26:17;2.40;;;1.80;;
7607;SDS011;3845;48.120;11.534;2022-12-29T12:29:01;1.83;;;1.50;;
7607;SDS011;3845;48.120;11.534;2022-12-29T12:31:39;2.50;;;1.70;;
7607;SDS011;3845;48.120;11.534;2022-12-29T12:34:11;2.97;;;1.70;;
7607;SDS011;3845;48.120;11.534;2022-12-29T12:36:58;1.40;;;1.20;;
7607;SDS011;3845;48.120;11.534;2022-12-29T12:39:27;2.07;;;1.20;;
7607;SDS011;3845;48.120;11.534;2022-12-29T12:42:23;1.87;;;1.40;;
7607;SDS011;3845;48.120;11.534;2022-12-29T12:44:56;1.77;;;1.40;;
7607;SDS011;3845;48.120;11.534;2022-12-29T12:53:41;1.40;;;1.20;;
7607;SDS011;3845;48.120;11.534;2022-12-29T12:59:30;1.50;;;1.23;;
7607;SDS011;3845;48.120;11.534;2022-12-29T13:10:02;1.50;;;1.20;;
7607;SDS011;3845;48.120;11.534;2022-12-29T13:18:44;2.23;;;1.60;;
7607;SDS011;3845;48.120;11.534;2022-12-29T13:24:02;2.47;;;1.50;;
7607;SDS011;3845;48.120;11.534;2022-12-29T13:27:04;1.90;;;1.50;;
7607;SDS011;3845;48.120;11.534;2022-12-29T13:37:51;2.80;;;1.70;;
7607;SDS011;3845;48.120;11.534;2022-12-29T13:40:21;2.37;;;1.70;;
7607;SDS011;3845;48.120;11.534;2022-12-29T13:42:49;1.70;;;1.47;;
7607;SDS011;3845;48.120;11.534;2022-12-29T13:45:16;1.60;;;1.40;;
7607;SDS011;3845;48.120;11.534;2022-12-29T13:47:46;1.87;;;1.43;;
7607;SDS011;3845;48.120;11.534;2022-12-29T13:50:21;2.00;;;1.60;;
7607;SDS011;3845;48.120;11.534;2022-12-29T13:58:12;1.90;;;1.40;;
7607;SDS011;3845;48.120;11.534;2022-12-29T14:00:47;2.23;;;1.50;;
7607;SDS011;3845;48.120;11.534;2022-12-29T14:03:42;2.13;;;1.40;;
7607;SDS011;3845;48.120;11.534;2022-12-29T14:08:50;1.60;;;1.30;;
7607;SDS011;3845;48.120;11.534;2022-12-29T14:11:22;1.90;;;1.40;;
7607;SDS011;3845;48.120;11.534;2022-12-29T14:13:52;1.77;;;1.30;;
7607;SDS011;3845;48.120;11.534;2022-12-29T14:18:50;1.77;;;1.30;;
7607;SDS011;3845;48.120;11.534;2022-12-29T14:23:44;1.70;;;1.30;;
7607;SDS011;3845;48.120;11.534;2022-12-29T14:26:15;1.70;;;1.40;;
7607;SDS011;3845;48.120;11.534;2022-12-29T14:28:44;1.70;;;1.50;;
7607;SDS011;3845;48.120;11.534;2022-12-29T14:33:39;3.70;;;2.00;;
7607;SDS011;3845;48.120;11.534;2022-12-29T14:36:21;2.27;;;1.80;;
7607;SDS011;3845;48.120;11.534;2022-12-29T14:38:50;2.47;;;1.80;;
7607;SDS011;3845;48.120;11.534;2022-12-29T14:44:01;2.83;;;1.70;;
7607;SDS011;3845;48.120;11.534;2022-12-29T14:46:55;2.83;;;2.00;;
7607;SDS011;3845;48.120;11.534;2022-12-29T14:49:22;2.70;;;1.97;;
7607;SDS011;3845;48.120;11.534;2022-12-29T14:51:51;2.67;;;1.77;;
7607;SDS011;3845;48.120;11.534;2022-12-29T14:54:40;4.63;;;3.07;;
7607;SDS011;3845;48.120;11.534;2022-12-29T14:57:10;8.77;;;6.10;;
7607;SDS011;3845;48.120;11.534;2022-12-29T14:59:40;4.30;;;3.40;;
7607;SDS011;3845;48.120;11.534;2022-12-29T15:02:13;3.87;;;3.00;;
7607;SDS011;3845;48.120;11.534;2022-12-29T15:04:41;3.83;;;2.83;;
7607;SDS011;3845;48.120;11.534;2022-12-29T15:07:08;3.47;;;2.50;;
7607;SDS011;3845;48.120;11.534;2022-12-29T15:09:35;3.07;;;2.40;;
7607;SDS011;3845;48.120;11.534;2022-12-29T15:15:26;3.03;;;2.10;;
7607;SDS011;3845;48.120;11.534;2022-12-29T15:17:52;4.30;;;2.47;;
7607;SDS011;3845;48.120;11.534;2022-12-29T15:20:28;3.30;;;2.30;;
7607;SDS011;3845;48.120;11.534;2022-12-29T15:25:25;4.97;;;2.07;;
7607;SDS011;3845;48.120;11.534;2022-12-29T15:27:55;2.57;;;2.13;;
7607;SDS011;3845;48.120;11.534;2022-12-29T15:30:23;3.30;;;2.13;;
7607;SDS011;3845;48.120;11.534;2022-12-29T15:32:49;2.43;;;2.00;;
7607;SDS011;3845;48.120;11.534;2022-12-29T15:35:21;2.77;;;1.90;;
7607;SDS011;3845;48.120;11.534;2022-12-29T15:38:00;2.80;;;2.10;;
7607;SDS011;3845;48.120;11.534;2022-12-29T15:40:32;2.60;;;1.90;;
7607;SDS011;3845;48.120;11.534;2022-12-29T15:45:52;2.50;;;2.00;;
7607;SDS011;3845;48.120;11.534;2022-12-29T15:48:19;2.10;;;1.90;;
7607;SDS011;3845;48.120;11.534;2022-12-29T15:50:46;3.33;;;2.10;;
7607;SDS011;3845;48.120;11.534;2022-12-29T15:53:14;4.57;;;2.00;;
7607;SDS011;3845;48.120;11.534;2022-12-29T15:55:49;2.30;;;1.90;;
7607;SDS011;3845;48.120;11.534;2022-12-29T15:58:22;4.33;;;2.17;;
7607;SDS011;3845;48.120;11.534;2022-12-29T16:00:54;2.83;;;2.20;;
7607;SDS011;3845;48.120;11.534;2022-12-29T16:03:22;2.90;;;2.40;;
7607;SDS011;3845;48.120;11.534;2022-12-29T16:05:55;3.40;;;2.70;;
7607;SDS011;3845;48.120;11.534;2022-12-29T16:08:32;4.07;;;2.77;;
7607;SDS011;3845;48.120;11.534;2022-12-29T16:11:26;3.57;;;2.50;;
7607;SDS011;3845;48.120;11.534;2022-12-29T16:13:56;3.67;;;2.47;;
7607;SDS011;3845;48.120;11.534;2022-12-29T16:16:24;2.90;;;2.30;;
7607;SDS011;3845;48.120;11.534;2022-12-29T16:18:52;2.67;;;2.00;;
7607;SDS011;3845;48.120;11.534;2022-12-29T16:21:20;3.33;;;2.30;;
7607;SDS011;3845;48.120;11.534;2022-12-29T16:23:49;3.20;;;2.20;;
7607;SDS011;3845;48.120;11.534;2022-12-29T16:26:16;2.47;;;1.80;;
7607;SDS011;3845;48.120;11.534;2022-12-29T16:28:43;3.00;;;2.20;;
7607;SDS011;3845;48.120;11.534;2022-12-29T16:31:22;2.43;;;2.00;;
7607;SDS011;3845;48.120;11.534;2022-12-29T16:33:50;2.90;;;2.10;;
7607;SDS011;3845;48.120;11.534;2022-12-29T16:36:23;2.80;;;2.10;;
7607;SDS011;3845;48.120;11.534;2022-12-29T16:38:49;2.70;;;1.97;;
7607;SDS011;3845;48.120;11.534;2022-12-29T16:41:29;2.53;;;2.00;;
7607;SDS011;3845;48.120;11.534;2022-12-29T16:49:26;3.97;;;1.90;;
7607;SDS011;3845;48.120;11.534;2022-12-29T16:51:52;2.43;;;2.00;;
7607;SDS011;3845;48.120;11.534;2022-12-29T16:54:22;4.13;;;1.87;;
7607;SDS011;3845;48.120;11.534;2022-12-29T16:56:49;2.30;;;1.80;;
7607;SDS011;3845;48.120;11.534;2022-12-29T16:59:33;2.83;;;2.20;;
7607;SDS011;3845;48.120;11.534;2022-12-29T17:02:07;2.30;;;2.10;;
7607;SDS011;3845;48.120;11.534;2022-12-29T17:04:39;2.17;;;1.90;;
7607;SDS011;3845;48.120;11.534;2022-12-29T17:07:09;2.60;;;2.00;;
7607;SDS011;3845;48.120;11.534;2022-12-29T17:09:41;2.50;;;2.00;;
7607;SDS011;3845;48.120;11.534;2022-12-29T17:12:06;6.43;;;3.97;;
7607;SDS011;3845;48.120;11.534;2022-12-29T17:17:30;3.87;;;2.80;;
7607;SDS011;3845;48.120;11.534;2022-12-29T17:20:22;3.47;;;2.73;;